sensor_id;sensor_type;location;lat;lon;timestamp;P1;durP1;ratioP1;P2;durP2;ratioP2
53666;SDS011;39568;51.026;5.468;2023-07-22T00:01:54;11.38;;;9.45;;
53666;SDS011;39568;51.026;5.468;2023-07-22T00:04:22;12.73;;;7.30;;
53666;SDS011;39568;51.026;5.468;2023-07-22T00:06:49;14.27;;;8.35;;
53666;SDS011;39568;51.026;5.468;2023-07-22T00:09:16;9.75;;;7.18;;
53666;SDS011;39568;51.026;5.468;2023-07-22T00:11:45;10.43;;;7.53;;
53666;SDS011;39568;51.026;5.468;2023-07-22T00:14:23;8.25;;;7.50;;
53666;SDS011;39568;51.026;5.468;2023-07-22T00:16:50;9.20;;;7.38;;
53666;SDS011;39568;51.026;5.468;2023-07-22T00:19:21;12.60;;;8.20;;
53666;SDS011;39568;51.026;5.468;2023-07-22T00:21:49;10.18;;;7.03;;
53666;SDS011;39568;51.026;5.468;2023-07-22T00:24:17;12.38;;;7.88;;
53666;SDS011;39568;51.026;5.468;2023-07-22T00:26:43;12.07;;;7.65;;
53666;SDS011;39568;51.026;5.468;2023-07-22T00:29:10;9.57;;;8.05;;
53666;SDS011;39568;51.026;5.468;2023-07-22T00:31:37;8.70;;;7.80;;
53666;SDS011;39568;51.026;5.468;2023-07-22T00:34:04;7.47;;;6.70;;
53666;SDS011;39568;51.026;5.468;2023-07-22T00:36:33;8.15;;;7.10;;
53666;SDS011;39568;51.026;5.468;2023-07-22T00:39:00;7.60;;;6.75;;
53666;SDS011;39568;51.026;5.468;2023-07-22T00:41:27;8.68;;;7.35;;
53666;SDS011;39568;51.026;5.468;2023-07-22T00:43:54;9.55;;;7.25;;
53666;SDS011;39568;51.026;5.468;2023-07-22T00:46:21;17.20;;;9.05;;
53666;SDS011;39568;51.026;5.468;2023-07-22T00:48:48;13.13;;;7.22;;
53666;SDS011;39568;51.026;5.468;2023-07-22T00:51:16;10.52;;;7.95;;
53666;SDS011;39568;51.026;5.468;2023-07-22T00:53:45;12.02;;;8.15;;
53666;SDS011;39568;51.026;5.468;2023-07-22T00:56:12;10.52;;;7.85;;
53666;SDS011;39568;51.026;5.468;2023-07-22T00:58:39;10.98;;;7.88;;
53666;SDS011;39568;51.026;5.468;2023-07-22T01:01:09;17.52;;;9.18;;
53666;SDS011;39568;51.026;5.468;2023-07-22T01:03:36;13.25;;;8.63;;
53666;SDS011;39568;51.026;5.468;2023-07-22T01:06:02;13.02;;;8.55;;
53666;SDS011;39568;51.026;5.468;2023-07-22T01:08:30;15.93;;;8.60;;
53666;SDS011;39568;51.026;5.468;2023-07-22T01:11:04;14.40;;;8.52;;
53666;SDS011;39568;51.026;5.468;2023-07-22T01:13:38;13.52;;;8.98;;
53666;SDS011;39568;51.026;5.468;2023-07-22T01:16:05;14.57;;;8.80;;
53666;SDS011;39568;51.026;5.468;2023-07-22T01:18:32;9.23;;;7.93;;
53666;SDS011;39568;51.026;5.468;2023-07-22T01:20:59;13.27;;;7.90;;
53666;SDS011;39568;51.026;5.468;2023-07-22T01:23:28;12.88;;;7.75;;
53666;SDS011;39568;51.026;5.468;2023-07-22T01:25:58;12.07;;;8.27;;
53666;SDS011;39568;51.026;5.468;2023-07-22T01:28:25;9.45;;;8.27;;
53666;SDS011;39568;51.026;5.468;2023-07-22T01:30:56;8.40;;;7.35;;
53666;SDS011;39568;51.026;5.468;2023-07-22T01:33:22;9.48;;;7.18;;
53666;SDS011;39568;51.026;5.468;2023-07-22T01:35:50;9.98;;;7.97;;
53666;SDS011;39568;51.026;5.468;2023-07-22T01:38:17;14.50;;;9.48;;
53666;SDS011;39568;51.026;5.468;2023-07-22T01:40:45;12.13;;;8.43;;
53666;SDS011;39568;51.026;5.468;2023-07-22T01:43:12;12.80;;;8.07;;
53666;SDS011;39568;51.026;5.468;2023-07-22T01:45:43;11.63;;;7.75;;
53666;SDS011;39568;51.026;5.468;2023-07-22T01:48:10;12.23;;;8.70;;
53666;SDS011;39568;51.026;5.468;2023-07-22T01:50:37;11.95;;;7.80;;
53666;SDS011;39568;51.026;5.468;2023-07-22T01:53:04;12.25;;;7.85;;
53666;SDS011;39568;51.026;5.468;2023-07-22T01:55:33;14.13;;;8.38;;
53666;SDS011;39568;51.026;5.468;2023-07-22T01:58:01;16.17;;;9.57;;
53666;SDS011;39568;51.026;5.468;2023-07-22T02:00:28;9.85;;;8.07;;
53666;SDS011;39568;51.026;5.468;2023-07-22T02:02:55;20.42;;;8.77;;
53666;SDS011;39568;51.026;5.468;2023-07-22T02:05:23;11.80;;;7.63;;
53666;SDS011;39568;51.026;5.468;2023-07-22T02:07:50;12.15;;;8.70;;
53666;SDS011;39568;51.026;5.468;2023-07-22T02:10:17;9.52;;;7.82;;
53666;SDS011;39568;51.026;5.468;2023-07-22T02:12:44;9.60;;;7.75;;
53666;SDS011;39568;51.026;5.468;2023-07-22T02:15:13;14.40;;;7.53;;
53666;SDS011;39568;51.026;5.468;2023-07-22T02:17:40;9.30;;;7.10;;
53666;SDS011;39568;51.026;5.468;2023-07-22T02:20:07;11.85;;;7.72;;
53666;SDS011;39568;51.026;5.468;2023-07-22T02:22:35;11.95;;;7.53;;
53666;SDS011;39568;51.026;5.468;2023-07-22T02:25:03;13.57;;;8.55;;
53666;SDS011;39568;51.026;5.468;2023-07-22T02:27:31;14.43;;;8.43;;
53666;SDS011;39568;51.026;5.468;2023-07-22T02:29:58;10.45;;;7.60;;
53666;SDS011;39568;51.026;5.468;2023-07-22T02:32:26;12.57;;;8.93;;
53666;SDS011;39568;51.026;5.468;2023-07-22T02:34:53;13.25;;;8.55;;
53666;SDS011;39568;51.026;5.468;2023-07-22T02:37:19;9.38;;;7.93;;
53666;SDS011;39568;51.026;5.468;2023-07-22T02:39:49;10.63;;;7.20;;
53666;SDS011;39568;51.026;5.468;2023-07-22T02:42:16;15.38;;;7.57;;
53666;SDS011;39568;51.026;5.468;2023-07-22T02:44:43;11.57;;;7.75;;
53666;SDS011;39568;51.026;5.468;2023-07-22T02:47:10;9.07;;;8.18;;
53666;SDS011;39568;51.026;5.468;2023-07-22T02:49:38;12.63;;;9.95;;
53666;SDS011;39568;51.026;5.468;2023-07-22T02:52:08;16.20;;;9.45;;
53666;SDS011;39568;51.026;5.468;2023-07-22T02:54:39;15.73;;;8.65;;
53666;SDS011;39568;51.026;5.468;2023-07-22T02:57:06;11.43;;;8.75;;
53666;SDS011;39568;51.026;5.468;2023-07-22T02:59:33;12.27;;;8.50;;
53666;SDS011;39568;51.026;5.468;2023-07-22T03:02:00;12.05;;;8.98;;
53666;SDS011;39568;51.026;5.468;2023-07-22T03:04:26;12.35;;;8.70;;
53666;SDS011;39568;51.026;5.468;2023-07-22T03:06:54;13.57;;;9.70;;
53666;SDS011;39568;51.026;5.468;2023-07-22T03:09:22;22.20;;;9.27;;
53666;SDS011;39568;51.026;5.468;2023-07-22T03:11:49;19.17;;;10.32;;
53666;SDS011;39568;51.026;5.468;2023-07-22T03:14:16;12.70;;;10.38;;
53666;SDS011;39568;51.026;5.468;2023-07-22T03:16:44;12.93;;;9.75;;
53666;SDS011;39568;51.026;5.468;2023-07-22T03:19:11;16.23;;;9.57;;
53666;SDS011;39568;51.026;5.468;2023-07-22T03:21:37;12.40;;;9.60;;
53666;SDS011;39568;51.026;5.468;2023-07-22T03:24:05;18.00;;;10.35;;
53666;SDS011;39568;51.026;5.468;2023-07-22T03:26:32;15.32;;;9.90;;
53666;SDS011;39568;51.026;5.468;2023-07-22T03:29:01;14.95;;;9.15;;
53666;SDS011;39568;51.026;5.468;2023-07-22T03:31:31;18.55;;;10.88;;
53666;SDS011;39568;51.026;5.468;2023-07-22T03:33:58;18.23;;;11.15;;
53666;SDS011;39568;51.026;5.468;2023-07-22T03:36:25;17.45;;;11.00;;
53666;SDS011;39568;51.026;5.468;2023-07-22T03:38:53;14.68;;;10.38;;
53666;SDS011;39568;51.026;5.468;2023-07-22T03:41:21;18.45;;;10.45;;
53666;SDS011;39568;51.026;5.468;2023-07-22T03:43:54;15.32;;;10.73;;
53666;SDS011;39568;51.026;5.468;2023-07-22T03:46:27;17.70;;;11.18;;
53666;SDS011;39568;51.026;5.468;2023-07-22T03:48:54;14.23;;;10.05;;
53666;SDS011;39568;51.026;5.468;2023-07-22T03:51:24;13.75;;;9.75;;
53666;SDS011;39568;51.026;5.468;2023-07-22T03:53:50;18.52;;;10.23;;
53666;SDS011;39568;51.026;5.468;2023-07-22T03:56:17;17.63;;;11.50;;
53666;SDS011;39568;51.026;5.468;2023-07-22T03:58:45;15.32;;;10.32;;
53666;SDS011;39568;51.026;5.468;2023-07-22T04:01:15;15.25;;;11.55;;
53666;SDS011;39568;51.026;5.468;2023-07-22T04:03:42;15.00;;;10.65;;
53666;SDS011;39568;51.026;5.468;2023-07-22T04:06:09;17.63;;;11.73;;
53666;SDS011;39568;51.026;5.468;2023-07-22T04:08:35;18.73;;;11.13;;
53666;SDS011;39568;51.026;5.468;2023-07-22T04:11:06;18.73;;;11.30;;
53666;SDS011;39568;51.026;5.468;2023-07-22T04:13:32;16.33;;;10.88;;
53666;SDS011;39568;51.026;5.468;2023-07-22T04:16:00;17.50;;;10.70;;
53666;SDS011;39568;51.026;5.468;2023-07-22T04:18:27;21.52;;;10.57;;
53666;SDS011;39568;51.026;5.468;2023-07-22T04:20:59;20.17;;;12.20;;
53666;SDS011;39568;51.026;5.468;2023-07-22T04:23:26;23.70;;;11.85;;
53666;SDS011;39568;51.026;5.468;2023-07-22T04:25:53;16.92;;;11.15;;
53666;SDS011;39568;51.026;5.468;2023-07-22T04:28:20;16.65;;;10.13;;
53666;SDS011;39568;51.026;5.468;2023-07-22T04:30:54;19.60;;;11.88;;
53666;SDS011;39568;51.026;5.468;2023-07-22T04:33:24;20.73;;;12.88;;
53666;SDS011;39568;51.026;5.468;2023-07-22T04:35:52;18.55;;;12.13;;
53666;SDS011;39568;51.026;5.468;2023-07-22T04:38:20;19.40;;;11.05;;
53666;SDS011;39568;51.026;5.468;2023-07-22T04:40:46;21.02;;;12.27;;
53666;SDS011;39568;51.026;5.468;2023-07-22T04:43:13;18.35;;;12.07;;
53666;SDS011;39568;51.026;5.468;2023-07-22T04:45:40;20.00;;;11.98;;
53666;SDS011;39568;51.026;5.468;2023-07-22T04:48:06;19.00;;;11.88;;
53666;SDS011;39568;51.026;5.468;2023-07-22T04:50:40;15.68;;;11.77;;
53666;SDS011;39568;51.026;5.468;2023-07-22T04:53:15;17.13;;;12.23;;
53666;SDS011;39568;51.026;5.468;2023-07-22T04:55:42;25.27;;;11.55;;
53666;SDS011;39568;51.026;5.468;2023-07-22T04:58:09;30.58;;;12.60;;
53666;SDS011;39568;51.026;5.468;2023-07-22T05:00:36;17.00;;;10.85;;
53666;SDS011;39568;51.026;5.468;2023-07-22T05:03:03;21.85;;;11.25;;
53666;SDS011;39568;51.026;5.468;2023-07-22T05:05:29;17.05;;;11.43;;
53666;SDS011;39568;51.026;5.468;2023-07-22T05:07:58;22.90;;;12.00;;
53666;SDS011;39568;51.026;5.468;2023-07-22T05:10:24;19.65;;;10.73;;
53666;SDS011;39568;51.026;5.468;2023-07-22T05:12:54;28.38;;;11.50;;
53666;SDS011;39568;51.026;5.468;2023-07-22T05:15:22;21.30;;;12.57;;
53666;SDS011;39568;51.026;5.468;2023-07-22T05:17:52;30.10;;;13.18;;
53666;SDS011;39568;51.026;5.468;2023-07-22T05:20:19;21.52;;;11.20;;
53666;SDS011;39568;51.026;5.468;2023-07-22T05:22:46;23.20;;;13.07;;
53666;SDS011;39568;51.026;5.468;2023-07-22T05:25:14;21.73;;;10.95;;
53666;SDS011;39568;51.026;5.468;2023-07-22T05:27:41;15.68;;;10.68;;
53666;SDS011;39568;51.026;5.468;2023-07-22T05:30:09;19.15;;;11.75;;
53666;SDS011;39568;51.026;5.468;2023-07-22T05:32:36;18.85;;;11.70;;
53666;SDS011;39568;51.026;5.468;2023-07-22T05:35:03;31.20;;;11.27;;
53666;SDS011;39568;51.026;5.468;2023-07-22T05:37:30;19.85;;;12.23;;
53666;SDS011;39568;51.026;5.468;2023-07-22T05:39:57;19.15;;;12.32;;
53666;SDS011;39568;51.026;5.468;2023-07-22T05:42:26;21.00;;;12.02;;
53666;SDS011;39568;51.026;5.468;2023-07-22T05:44:59;20.33;;;12.32;;
53666;SDS011;39568;51.026;5.468;2023-07-22T05:47:27;26.52;;;11.98;;
53666;SDS011;39568;51.026;5.468;2023-07-22T05:49:57;21.73;;;12.57;;
53666;SDS011;39568;51.026;5.468;2023-07-22T05:52:24;27.08;;;11.48;;
53666;SDS011;39568;51.026;5.468;2023-07-22T05:54:50;17.30;;;12.43;;
53666;SDS011;39568;51.026;5.468;2023-07-22T05:57:17;19.30;;;10.77;;
53666;SDS011;39568;51.026;5.468;2023-07-22T05:59:45;21.05;;;13.43;;
53666;SDS011;39568;51.026;5.468;2023-07-22T06:02:12;20.20;;;11.95;;
53666;SDS011;39568;51.026;5.468;2023-07-22T06:04:42;19.23;;;11.52;;
53666;SDS011;39568;51.026;5.468;2023-07-22T06:07:09;20.85;;;11.20;;
53666;SDS011;39568;51.026;5.468;2023-07-22T06:09:40;24.73;;;11.27;;
53666;SDS011;39568;51.026;5.468;2023-07-22T06:12:07;19.67;;;11.50;;
53666;SDS011;39568;51.026;5.468;2023-07-22T06:14:34;17.55;;;11.90;;
53666;SDS011;39568;51.026;5.468;2023-07-22T06:17:02;22.48;;;12.45;;
53666;SDS011;39568;51.026;5.468;2023-07-22T06:19:29;19.00;;;13.50;;
53666;SDS011;39568;51.026;5.468;2023-07-22T06:21:56;24.02;;;14.05;;
53666;SDS011;39568;51.026;5.468;2023-07-22T06:24:22;20.80;;;12.10;;
53666;SDS011;39568;51.026;5.468;2023-07-22T06:26:49;15.02;;;10.27;;
53666;SDS011;39568;51.026;5.468;2023-07-22T06:29:16;23.38;;;11.95;;
53666;SDS011;39568;51.026;5.468;2023-07-22T06:31:43;18.67;;;11.00;;
53666;SDS011;39568;51.026;5.468;2023-07-22T06:34:11;25.60;;;11.05;;
53666;SDS011;39568;51.026;5.468;2023-07-22T06:36:44;23.55;;;12.05;;
53666;SDS011;39568;51.026;5.468;2023-07-22T06:39:10;40.15;;;11.45;;
53666;SDS011;39568;51.026;5.468;2023-07-22T06:41:37;20.65;;;10.75;;
53666;SDS011;39568;51.026;5.468;2023-07-22T06:44:04;30.05;;;11.52;;
53666;SDS011;39568;51.026;5.468;2023-07-22T06:46:31;17.23;;;10.40;;
53666;SDS011;39568;51.026;5.468;2023-07-22T06:49:03;23.92;;;10.55;;
53666;SDS011;39568;51.026;5.468;2023-07-22T06:51:31;24.90;;;12.05;;
53666;SDS011;39568;51.026;5.468;2023-07-22T06:53:57;19.83;;;10.48;;
53666;SDS011;39568;51.026;5.468;2023-07-22T06:56:24;24.58;;;11.43;;
53666;SDS011;39568;51.026;5.468;2023-07-22T06:58:51;19.08;;;8.52;;
53666;SDS011;39568;51.026;5.468;2023-07-22T07:01:23;27.55;;;9.85;;
53666;SDS011;39568;51.026;5.468;2023-07-22T07:03:49;15.98;;;9.88;;
53666;SDS011;39568;51.026;5.468;2023-07-22T07:06:16;23.05;;;11.50;;
53666;SDS011;39568;51.026;5.468;2023-07-22T07:08:44;13.40;;;8.73;;
53666;SDS011;39568;51.026;5.468;2023-07-22T07:11:11;14.90;;;8.85;;
53666;SDS011;39568;51.026;5.468;2023-07-22T07:13:38;20.27;;;11.13;;
53666;SDS011;39568;51.026;5.468;2023-07-22T07:16:22;18.95;;;9.13;;
53666;SDS011;39568;51.026;5.468;2023-07-22T07:18:49;23.42;;;9.45;;
53666;SDS011;39568;51.026;5.468;2023-07-22T07:21:17;9.15;;;7.68;;
53666;SDS011;39568;51.026;5.468;2023-07-22T07:23:53;14.50;;;8.07;;
53666;SDS011;39568;51.026;5.468;2023-07-22T07:26:21;11.52;;;8.13;;
53666;SDS011;39568;51.026;5.468;2023-07-22T07:28:48;14.13;;;6.35;;
53666;SDS011;39568;51.026;5.468;2023-07-22T07:31:16;20.08;;;9.18;;
53666;SDS011;39568;51.026;5.468;2023-07-22T07:33:43;11.75;;;6.68;;
53666;SDS011;39568;51.026;5.468;2023-07-22T07:36:11;12.30;;;7.03;;
53666;SDS011;39568;51.026;5.468;2023-07-22T07:38:39;18.13;;;8.32;;
53666;SDS011;39568;51.026;5.468;2023-07-22T07:41:08;15.05;;;8.13;;
53666;SDS011;39568;51.026;5.468;2023-07-22T07:43:37;10.48;;;7.18;;
53666;SDS011;39568;51.026;5.468;2023-07-22T07:46:12;18.95;;;7.88;;
53666;SDS011;39568;51.026;5.468;2023-07-22T07:48:44;18.60;;;9.57;;
53666;SDS011;39568;51.026;5.468;2023-07-22T07:51:12;15.32;;;7.38;;
53666;SDS011;39568;51.026;5.468;2023-07-22T07:53:40;19.13;;;7.18;;
53666;SDS011;39568;51.026;5.468;2023-07-22T07:56:10;18.42;;;8.07;;
53666;SDS011;39568;51.026;5.468;2023-07-22T07:58:38;11.02;;;6.20;;
53666;SDS011;39568;51.026;5.468;2023-07-22T08:01:05;17.48;;;7.72;;
53666;SDS011;39568;51.026;5.468;2023-07-22T08:03:32;15.95;;;8.25;;
53666;SDS011;39568;51.026;5.468;2023-07-22T08:06:00;11.35;;;5.75;;
53666;SDS011;39568;51.026;5.468;2023-07-22T08:08:27;12.48;;;6.90;;
53666;SDS011;39568;51.026;5.468;2023-07-22T08:10:57;14.10;;;6.47;;
53666;SDS011;39568;51.026;5.468;2023-07-22T08:13:27;13.98;;;6.68;;
53666;SDS011;39568;51.026;5.468;2023-07-22T08:15:55;12.65;;;5.97;;
53666;SDS011;39568;51.026;5.468;2023-07-22T08:18:22;10.80;;;5.18;;
53666;SDS011;39568;51.026;5.468;2023-07-22T08:20:50;15.63;;;6.38;;
53666;SDS011;39568;51.026;5.468;2023-07-22T08:23:17;14.50;;;6.18;;
53666;SDS011;39568;51.026;5.468;2023-07-22T08:25:44;8.93;;;5.75;;
53666;SDS011;39568;51.026;5.468;2023-07-22T08:28:13;12.43;;;5.90;;
53666;SDS011;39568;51.026;5.468;2023-07-22T08:30:43;10.70;;;5.40;;
53666;SDS011;39568;51.026;5.468;2023-07-22T08:33:13;8.80;;;5.00;;
53666;SDS011;39568;51.026;5.468;2023-07-22T08:35:41;8.95;;;4.93;;
53666;SDS011;39568;51.026;5.468;2023-07-22T08:38:13;11.98;;;5.65;;
53666;SDS011;39568;51.026;5.468;2023-07-22T08:40:40;10.13;;;5.00;;
53666;SDS011;39568;51.026;5.468;2023-07-22T08:43:07;11.27;;;4.45;;
53666;SDS011;39568;51.026;5.468;2023-07-22T08:45:35;11.40;;;5.47;;
53666;SDS011;39568;51.026;5.468;2023-07-22T08:48:07;13.15;;;4.13;;
53666;SDS011;39568;51.026;5.468;2023-07-22T08:50:43;8.95;;;4.70;;
53666;SDS011;39568;51.026;5.468;2023-07-22T08:53:12;12.60;;;3.15;;
53666;SDS011;39568;51.026;5.468;2023-07-22T08:55:42;3.78;;;3.35;;
53666;SDS011;39568;51.026;5.468;2023-07-22T08:58:09;5.07;;;3.10;;
53666;SDS011;39568;51.026;5.468;2023-07-22T09:00:37;12.73;;;3.92;;
53666;SDS011;39568;51.026;5.468;2023-07-22T09:03:06;8.07;;;4.03;;
53666;SDS011;39568;51.026;5.468;2023-07-22T09:05:36;9.82;;;4.72;;
53666;SDS011;39568;51.026;5.468;2023-07-22T09:08:04;7.93;;;3.60;;
53666;SDS011;39568;51.026;5.468;2023-07-22T09:10:33;13.85;;;4.72;;
53666;SDS011;39568;51.026;5.468;2023-07-22T09:13:01;3.90;;;3.33;;
53666;SDS011;39568;51.026;5.468;2023-07-22T09:15:28;9.40;;;3.08;;
53666;SDS011;39568;51.026;5.468;2023-07-22T09:17:55;6.10;;;3.53;;
53666;SDS011;39568;51.026;5.468;2023-07-22T09:20:24;6.25;;;3.03;;
53666;SDS011;39568;51.026;5.468;2023-07-22T09:22:54;5.28;;;3.22;;
53666;SDS011;39568;51.026;5.468;2023-07-22T09:25:28;6.50;;;3.10;;
53666;SDS011;39568;51.026;5.468;2023-07-22T09:27:55;10.68;;;4.30;;
53666;SDS011;39568;51.026;5.468;2023-07-22T09:30:25;3.58;;;2.33;;
53666;SDS011;39568;51.026;5.468;2023-07-22T09:32:54;9.18;;;3.72;;
53666;SDS011;39568;51.026;5.468;2023-07-22T09:35:22;10.10;;;3.28;;
53666;SDS011;39568;51.026;5.468;2023-07-22T09:37:54;3.40;;;2.38;;
53666;SDS011;39568;51.026;5.468;2023-07-22T09:40:24;4.05;;;2.40;;
53666;SDS011;39568;51.026;5.468;2023-07-22T09:42:52;6.72;;;2.65;;
53666;SDS011;39568;51.026;5.468;2023-07-22T09:45:21;5.63;;;2.95;;
53666;SDS011;39568;51.026;5.468;2023-07-22T09:47:51;3.53;;;2.03;;
53666;SDS011;39568;51.026;5.468;2023-07-22T09:50:21;8.17;;;2.50;;
53666;SDS011;39568;51.026;5.468;2023-07-22T09:52:53;10.02;;;2.85;;
53666;SDS011;39568;51.026;5.468;2023-07-22T09:55:22;8.35;;;2.13;;
53666;SDS011;39568;51.026;5.468;2023-07-22T09:57:55;2.53;;;1.27;;
53666;SDS011;39568;51.026;5.468;2023-07-22T10:00:23;6.70;;;1.88;;
53666;SDS011;39568;51.026;5.468;2023-07-22T10:02:51;11.40;;;2.67;;
53666;SDS011;39568;51.026;5.468;2023-07-22T10:05:22;5.95;;;1.95;;
53666;SDS011;39568;51.026;5.468;2023-07-22T10:07:56;6.57;;;1.30;;
53666;SDS011;39568;51.026;5.468;2023-07-22T10:10:25;2.03;;;1.42;;
53666;SDS011;39568;51.026;5.468;2023-07-22T10:12:57;4.07;;;1.58;;
53666;SDS011;39568;51.026;5.468;2023-07-22T10:15:24;5.22;;;1.73;;
53666;SDS011;39568;51.026;5.468;2023-07-22T10:17:52;6.00;;;2.25;;
53666;SDS011;39568;51.026;5.468;2023-07-22T10:20:21;4.05;;;2.53;;
53666;SDS011;39568;51.026;5.468;2023-07-22T10:22:48;2.05;;;1.58;;
53666;SDS011;39568;51.026;5.468;2023-07-22T10:25:19;2.30;;;2.10;;
53666;SDS011;39568;51.026;5.468;2023-07-22T10:27:48;1.77;;;1.33;;
53666;SDS011;39568;51.026;5.468;2023-07-22T10:30:17;2.03;;;1.48;;
53666;SDS011;39568;51.026;5.468;2023-07-22T10:32:45;2.65;;;1.40;;
53666;SDS011;39568;51.026;5.468;2023-07-22T10:35:22;2.92;;;1.55;;
53666;SDS011;39568;51.026;5.468;2023-07-22T10:38:06;7.05;;;1.98;;
53666;SDS011;39568;51.026;5.468;2023-07-22T10:40:35;1.20;;;1.13;;
53666;SDS011;39568;51.026;5.468;2023-07-22T10:43:12;5.10;;;1.75;;
53666;SDS011;39568;51.026;5.468;2023-07-22T10:45:45;4.18;;;1.80;;
53666;SDS011;39568;51.026;5.468;2023-07-22T10:48:16;6.90;;;2.08;;
53666;SDS011;39568;51.026;5.468;2023-07-22T10:50:49;2.92;;;1.23;;
53666;SDS011;39568;51.026;5.468;2023-07-22T10:53:20;1.55;;;0.75;;
53666;SDS011;39568;51.026;5.468;2023-07-22T10:58:56;6.68;;;2.22;;
53666;SDS011;39568;51.026;5.468;2023-07-22T11:01:24;5.72;;;1.67;;
53666;SDS011;39568;51.026;5.468;2023-07-22T11:04:08;2.85;;;1.38;;
53666;SDS011;39568;51.026;5.468;2023-07-22T11:06:40;1.17;;;1.08;;
53666;SDS011;39568;51.026;5.468;2023-07-22T11:09:38;4.43;;;1.90;;
53666;SDS011;39568;51.026;5.468;2023-07-22T11:12:11;2.13;;;1.65;;
53666;SDS011;39568;51.026;5.468;2023-07-22T11:14:45;3.15;;;1.27;;
53666;SDS011;39568;51.026;5.468;2023-07-22T11:17:14;2.35;;;1.73;;
53666;SDS011;39568;51.026;5.468;2023-07-22T11:19:43;2.15;;;1.17;;
53666;SDS011;39568;51.026;5.468;2023-07-22T11:22:10;2.05;;;1.25;;
53666;SDS011;39568;51.026;5.468;2023-07-22T11:24:37;5.10;;;1.42;;
53666;SDS011;39568;51.026;5.468;2023-07-22T11:27:04;2.55;;;0.80;;
53666;SDS011;39568;51.026;5.468;2023-07-22T11:29:33;1.27;;;1.00;;
53666;SDS011;39568;51.026;5.468;2023-07-22T11:32:00;2.97;;;1.85;;
53666;SDS011;39568;51.026;5.468;2023-07-22T11:34:28;4.70;;;1.90;;
53666;SDS011;39568;51.026;5.468;2023-07-22T11:36:54;2.33;;;1.63;;
53666;SDS011;39568;51.026;5.468;2023-07-22T11:39:25;4.53;;;1.70;;
53666;SDS011;39568;51.026;5.468;2023-07-22T11:41:56;2.90;;;1.48;;
53666;SDS011;39568;51.026;5.468;2023-07-22T11:44:26;1.88;;;1.48;;
53666;SDS011;39568;51.026;5.468;2023-07-22T11:46:59;2.90;;;1.60;;
53666;SDS011;39568;51.026;5.468;2023-07-22T11:49:30;3.78;;;1.90;;
53666;SDS011;39568;51.026;5.468;2023-07-22T11:52:00;3.15;;;1.95;;
53666;SDS011;39568;51.026;5.468;2023-07-22T11:54:28;5.18;;;1.73;;
53666;SDS011;39568;51.026;5.468;2023-07-22T11:56:57;3.80;;;1.25;;
53666;SDS011;39568;51.026;5.468;2023-07-22T11:59:36;2.45;;;1.83;;
53666;SDS011;39568;51.026;5.468;2023-07-22T12:02:05;0.98;;;0.98;;
53666;SDS011;39568;51.026;5.468;2023-07-22T12:04:32;5.80;;;1.92;;
53666;SDS011;39568;51.026;5.468;2023-07-22T12:06:59;1.83;;;1.38;;
53666;SDS011;39568;51.026;5.468;2023-07-22T12:09:26;1.23;;;1.23;;
53666;SDS011;39568;51.026;5.468;2023-07-22T12:11:56;2.72;;;1.40;;
53666;SDS011;39568;51.026;5.468;2023-07-22T12:14:24;4.22;;;1.92;;
53666;SDS011;39568;51.026;5.468;2023-07-22T12:16:58;5.22;;;1.60;;
53666;SDS011;39568;51.026;5.468;2023-07-22T12:19:26;1.33;;;1.23;;
53666;SDS011;39568;51.026;5.468;2023-07-22T12:21:53;1.65;;;1.13;;
53666;SDS011;39568;51.026;5.468;2023-07-22T12:24:20;1.50;;;1.25;;
53666;SDS011;39568;51.026;5.468;2023-07-22T12:26:56;4.00;;;1.50;;
53666;SDS011;39568;51.026;5.468;2023-07-22T12:29:23;1.63;;;1.45;;
53666;SDS011;39568;51.026;5.468;2023-07-22T12:31:58;2.47;;;1.30;;
53666;SDS011;39568;51.026;5.468;2023-07-22T12:34:24;1.30;;;1.10;;
53666;SDS011;39568;51.026;5.468;2023-07-22T12:36:52;1.15;;;1.05;;
53666;SDS011;39568;51.026;5.468;2023-07-22T12:39:20;1.33;;;1.23;;
53666;SDS011;39568;51.026;5.468;2023-07-22T12:41:47;1.27;;;1.17;;
53666;SDS011;39568;51.026;5.468;2023-07-22T12:44:13;1.17;;;0.70;;
53666;SDS011;39568;51.026;5.468;2023-07-22T12:46:40;3.65;;;1.33;;
53666;SDS011;39568;51.026;5.468;2023-07-22T12:49:14;0.82;;;0.82;;
53666;SDS011;39568;51.026;5.468;2023-07-22T12:51:41;3.28;;;1.02;;
53666;SDS011;39568;51.026;5.468;2023-07-22T12:54:09;1.15;;;1.05;;
53666;SDS011;39568;51.026;5.468;2023-07-22T12:56:36;1.55;;;1.42;;
53666;SDS011;39568;51.026;5.468;2023-07-22T12:59:03;4.18;;;1.20;;
53666;SDS011;39568;51.026;5.468;2023-07-22T13:01:32;1.83;;;1.60;;
53666;SDS011;39568;51.026;5.468;2023-07-22T13:03:59;1.98;;;1.40;;
53666;SDS011;39568;51.026;5.468;2023-07-22T13:06:26;2.20;;;0.90;;
53666;SDS011;39568;51.026;5.468;2023-07-22T13:08:53;1.60;;;1.50;;
53666;SDS011;39568;51.026;5.468;2023-07-22T13:11:21;3.28;;;1.05;;
53666;SDS011;39568;51.026;5.468;2023-07-22T13:13:47;1.95;;;1.48;;
53666;SDS011;39568;51.026;5.468;2023-07-22T13:16:18;3.40;;;1.48;;
53666;SDS011;39568;51.026;5.468;2023-07-22T13:18:45;1.42;;;1.17;;
53666;SDS011;39568;51.026;5.468;2023-07-22T13:21:11;1.20;;;1.05;;
53666;SDS011;39568;51.026;5.468;2023-07-22T13:23:38;5.25;;;1.30;;
53666;SDS011;39568;51.026;5.468;2023-07-22T13:26:04;1.48;;;1.15;;
53666;SDS011;39568;51.026;5.468;2023-07-22T13:28:33;6.13;;;2.35;;
53666;SDS011;39568;51.026;5.468;2023-07-22T13:30:59;4.97;;;1.58;;
53666;SDS011;39568;51.026;5.468;2023-07-22T13:33:29;6.03;;;1.90;;
53666;SDS011;39568;51.026;5.468;2023-07-22T13:35:56;1.80;;;1.40;;
53666;SDS011;39568;51.026;5.468;2023-07-22T13:38:22;2.30;;;1.83;;
53666;SDS011;39568;51.026;5.468;2023-07-22T13:40:49;1.35;;;1.30;;
53666;SDS011;39568;51.026;5.468;2023-07-22T13:43:16;3.90;;;1.40;;
53666;SDS011;39568;51.026;5.468;2023-07-22T13:45:44;1.98;;;1.35;;
53666;SDS011;39568;51.026;5.468;2023-07-22T13:48:11;1.67;;;1.58;;
53666;SDS011;39568;51.026;5.468;2023-07-22T13:50:38;3.05;;;1.77;;
53666;SDS011;39568;51.026;5.468;2023-07-22T13:53:14;1.98;;;1.88;;
53666;SDS011;39568;51.026;5.468;2023-07-22T13:55:42;4.32;;;2.20;;
53666;SDS011;39568;51.026;5.468;2023-07-22T13:58:09;3.30;;;2.20;;
53666;SDS011;39568;51.026;5.468;2023-07-22T14:00:36;1.55;;;1.33;;
53666;SDS011;39568;51.026;5.468;2023-07-22T14:03:04;2.08;;;1.80;;
53666;SDS011;39568;51.026;5.468;2023-07-22T14:05:31;2.22;;;1.38;;
53666;SDS011;39568;51.026;5.468;2023-07-22T14:08:09;4.55;;;1.75;;
53666;SDS011;39568;51.026;5.468;2023-07-22T14:13:07;5.35;;;2.33;;
53666;SDS011;39568;51.026;5.468;2023-07-22T14:15:36;3.00;;;1.40;;
53666;SDS011;39568;51.026;5.468;2023-07-22T14:18:04;5.97;;;1.48;;
53666;SDS011;39568;51.026;5.468;2023-07-22T14:20:32;2.72;;;1.42;;
53666;SDS011;39568;51.026;5.468;2023-07-22T14:22:59;6.00;;;2.03;;
53666;SDS011;39568;51.026;5.468;2023-07-22T14:25:25;2.08;;;1.98;;
53666;SDS011;39568;51.026;5.468;2023-07-22T14:27:54;3.65;;;2.10;;
53666;SDS011;39568;51.026;5.468;2023-07-22T14:30:21;3.83;;;2.38;;
53666;SDS011;39568;51.026;5.468;2023-07-22T14:32:47;6.00;;;1.70;;
53666;SDS011;39568;51.026;5.468;2023-07-22T14:35:15;1.73;;;1.20;;
53666;SDS011;39568;51.026;5.468;2023-07-22T14:37:44;3.00;;;1.85;;
53666;SDS011;39568;51.026;5.468;2023-07-22T14:40:12;4.03;;;1.50;;
53666;SDS011;39568;51.026;5.468;2023-07-22T14:42:39;1.73;;;1.63;;
53666;SDS011;39568;51.026;5.468;2023-07-22T14:45:06;1.20;;;1.10;;
53666;SDS011;39568;51.026;5.468;2023-07-22T14:47:33;1.50;;;1.40;;
53666;SDS011;39568;51.026;5.468;2023-07-22T14:50:01;7.90;;;2.58;;
53666;SDS011;39568;51.026;5.468;2023-07-22T14:52:30;2.20;;;1.70;;